createdAt,value
2022-12-12T00:00:50.655Z,-0.70
2022-12-12T00:03:53.320Z,-0.57
2022-12-12T00:06:55.394Z,-0.57
2022-12-12T00:09:57.366Z,-0.54
2022-12-12T00:12:59.475Z,-0.48
2022-12-12T00:16:01.541Z,-0.65
2022-12-12T00:19:03.729Z,-0.64
2022-12-12T00:22:07.051Z,-0.60
2022-12-12T00:25:09.557Z,-0.57
2022-12-12T00:28:11.657Z,-0.73
2022-12-12T00:31:14.358Z,-0.72
2022-12-12T00:34:16.313Z,-0.65
2022-12-12T00:37:18.273Z,-0.73
2022-12-12T00:40:21.453Z,-0.58
2022-12-12T00:43:24.078Z,-0.51
2022-12-12T00:46:26.480Z,-0.71
2022-12-12T00:49:28.530Z,-0.64
2022-12-12T00:52:31.606Z,-0.65
2022-12-12T00:55:33.621Z,-0.79
2022-12-12T00:58:36.477Z,-0.92
2022-12-12T01:01:39.390Z,-0.91
2022-12-12T01:04:42.525Z,-0.99
2022-12-12T01:07:44.421Z,-0.99
2022-12-12T01:10:46.780Z,-0.98
2022-12-12T01:13:51.028Z,-1.07
2022-12-12T01:16:52.968Z,-1.02
2022-12-12T01:19:54.973Z,-1.08
2022-12-12T01:22:57.237Z,-0.97
2022-12-12T01:26:05.275Z,-1.03
2022-12-12T01:29:07.551Z,-1.07
2022-12-12T01:32:09.484Z,-1.11
2022-12-12T01:35:11.911Z,-1.07
2022-12-12T01:38:14.248Z,-1.03
2022-12-12T01:41:17.782Z,-1.02
2022-12-12T01:44:43.378Z,-1.02
2022-12-12T01:47:45.751Z,-1.08
2022-12-12T01:50:48.704Z,-1.09
2022-12-12T01:53:54.646Z,-1.11
2022-12-12T01:57:00.984Z,-1.10
2022-12-12T02:00:07.497Z,-1.10
2022-12-12T02:03:10.132Z,-1.10
2022-12-12T02:06:17.403Z,-1.13
2022-12-12T02:09:21.027Z,-1.19
2022-12-12T02:12:23.069Z,-1.13
2022-12-12T02:15:31.024Z,-1.14
2022-12-12T02:18:53.161Z,-1.09
2022-12-12T02:22:02.184Z,-1.11
2022-12-12T02:25:12.711Z,-1.06
2022-12-12T02:28:28.893Z,-1.04
2022-12-12T02:31:46.939Z,-1.02
2022-12-12T02:34:59.817Z,-1.05
2022-12-12T02:38:25.287Z,-1.15
2022-12-12T02:41:44.534Z,-1.00
2022-12-12T02:44:58.530Z,-0.96
2022-12-12T02:48:17.010Z,-1.05
2022-12-12T02:51:20.163Z,-1.04
2022-12-12T02:54:23.347Z,-1.06
2022-12-12T02:57:27.052Z,-0.98
2022-12-12T03:00:39.216Z,-1.06
2022-12-12T03:04:04.351Z,-1.01
2022-12-12T03:07:37.270Z,-1.04
2022-12-12T03:10:58.225Z,-1.05
2022-12-12T03:14:12.127Z,-1.09
2022-12-12T03:17:49.210Z,-0.99
2022-12-12T03:21:03.317Z,-1.05
2022-12-12T03:24:25.421Z,-1.06
2022-12-12T03:27:50.487Z,-1.13
2022-12-12T03:30:56.949Z,-1.15
2022-12-12T03:34:07.283Z,-1.10
2022-12-12T03:37:34.106Z,-1.13
2022-12-12T03:40:44.445Z,-1.11
2022-12-12T03:43:54.067Z,-1.16
2022-12-12T03:47:03.932Z,-1.10
2022-12-12T03:50:32.349Z,-1.09
2022-12-12T03:53:43.945Z,-1.09
2022-12-12T03:56:46.407Z,-1.13
2022-12-12T03:59:58.188Z,-1.11
2022-12-12T04:03:16.278Z,-1.07
2022-12-12T04:06:34.316Z,-0.97
2022-12-12T04:09:55.381Z,-0.99
2022-12-12T04:13:10.523Z,-0.91
2022-12-12T04:16:24.145Z,-0.88
2022-12-12T04:20:00.131Z,-0.88
2022-12-12T04:23:16.974Z,-0.93
2022-12-12T04:26:42.015Z,-0.97
2022-12-12T04:30:05.400Z,-0.87
2022-12-12T04:33:13.478Z,-0.94
2022-12-12T04:36:18.595Z,-0.85
2022-12-12T04:39:21.857Z,-0.86
2022-12-12T04:42:28.331Z,-1.02
2022-12-12T04:45:53.660Z,-1.11
2022-12-12T04:49:04.157Z,-1.17
2022-12-12T04:52:09.890Z,-1.15
2022-12-12T04:55:24.529Z,-1.17
2022-12-12T04:58:27.511Z,-1.17
2022-12-12T05:01:52.686Z,-1.21
2022-12-12T05:05:03.471Z,-1.21
2022-12-12T05:08:24.285Z,-1.21
2022-12-12T05:11:26.577Z,-1.30
2022-12-12T05:14:31.179Z,-1.37
2022-12-12T05:17:40.408Z,-1.45
2022-12-12T05:20:42.952Z,-1.52
2022-12-12T05:23:45.143Z,-1.57
2022-12-12T05:26:47.295Z,-1.60
2022-12-12T05:29:49.173Z,-1.56
2022-12-12T05:32:51.809Z,-1.54
2022-12-12T05:35:53.865Z,-1.56
2022-12-12T05:38:55.992Z,-1.64
2022-12-12T05:41:58.166Z,-1.71
2022-12-12T05:45:00.116Z,-1.70
2022-12-12T05:48:01.973Z,-1.67
2022-12-12T05:51:04.802Z,-1.72
2022-12-12T05:54:06.708Z,-1.69
2022-12-12T05:57:09.317Z,-1.63
2022-12-12T06:00:11.912Z,-1.69
2022-12-12T06:03:14.169Z,-1.71
2022-12-12T06:06:16.325Z,-1.75
2022-12-12T06:09:18.345Z,-1.82
2022-12-12T06:12:20.646Z,-1.85
2022-12-12T06:15:23.020Z,-1.84
2022-12-12T06:18:27.088Z,-1.85
2022-12-12T06:21:41.185Z,-1.89
2022-12-12T06:24:43.199Z,-1.89
2022-12-12T06:27:47.436Z,-1.90
2022-12-12T06:30:51.165Z,-1.89
2022-12-12T06:33:55.943Z,-1.88
2022-12-12T06:36:58.198Z,-1.87
2022-12-12T06:40:01.848Z,-1.86
2022-12-12T06:43:06.312Z,-1.88
2022-12-12T06:46:24.575Z,-1.83
2022-12-12T06:49:29.678Z,-1.79
2022-12-12T06:57:01.474Z,-1.79
2022-12-12T07:00:04.693Z,-1.72
2022-12-12T07:03:14.859Z,-1.70
2022-12-12T07:06:40.817Z,-1.64
2022-12-12T07:10:32.904Z,-1.63
2022-12-12T07:13:35.589Z,-1.74
2022-12-12T07:16:39.234Z,-1.60
2022-12-12T07:19:41.542Z,-1.63
2022-12-12T07:22:46.396Z,-1.58
2022-12-12T07:25:49.185Z,-1.61
2022-12-12T07:28:55.153Z,-1.60
2022-12-12T07:31:57.717Z,-1.64
2022-12-12T07:35:00.219Z,-1.56
2022-12-12T07:38:04.893Z,-1.51
2022-12-12T07:41:12.842Z,-1.62
2022-12-12T07:44:16.462Z,-1.57
2022-12-12T07:47:18.762Z,-1.56
2022-12-12T07:50:22.884Z,-1.39
2022-12-12T07:53:25.150Z,-1.38
2022-12-12T07:56:28.047Z,-1.40
2022-12-12T07:59:30.821Z,-1.37
2022-12-12T08:02:36.653Z,-1.34
2022-12-12T08:05:50.648Z,-1.32
2022-12-12T08:08:56.192Z,-1.33
2022-12-12T08:12:00.980Z,-1.34
2022-12-12T08:15:04.669Z,-1.24
2022-12-12T08:19:01.927Z,-1.25
2022-12-12T08:22:10.029Z,-1.39
2022-12-12T08:25:15.760Z,-1.19
2022-12-12T08:28:18.875Z,-1.17
2022-12-12T08:31:22.713Z,-1.11
2022-12-12T08:34:25.162Z,-0.98
2022-12-12T08:37:29.373Z,-1.00
2022-12-12T08:40:39.097Z,-1.08
2022-12-12T08:43:43.500Z,-1.01
2022-12-12T08:46:46.303Z,-1.03
2022-12-12T08:49:48.691Z,-0.99
2022-12-12T08:52:52.988Z,-0.93
2022-12-12T08:56:01.036Z,-0.88
2022-12-12T08:59:03.748Z,-0.88
2022-12-12T09:02:17.391Z,-0.93
2022-12-12T09:06:04.911Z,-0.81
2022-12-12T09:09:14.320Z,-0.87
2022-12-12T09:13:04.560Z,-0.72
2022-12-12T09:16:11.246Z,-0.67
2022-12-12T09:19:16.428Z,-0.79
2022-12-12T09:22:21.839Z,-0.69
2022-12-12T09:25:25.372Z,-0.57
2022-12-12T09:28:28.824Z,-0.56
2022-12-12T09:31:31.030Z,-0.45
2022-12-12T09:34:38.384Z,-0.47
2022-12-12T09:37:42.425Z,-0.41
2022-12-12T09:41:04.235Z,-0.27
2022-12-12T09:44:18.982Z,-0.23
2022-12-12T09:47:40.093Z,-0.25
2022-12-12T09:50:49.382Z,-0.13
2022-12-12T09:53:56.790Z,-0.11
2022-12-12T09:57:26.849Z,-0.33
2022-12-12T10:00:37.167Z,-0.25
2022-12-12T10:08:23.949Z,-0.17
2022-12-12T10:12:06.538Z,-0.50
2022-12-12T10:15:43.158Z,-0.44
2022-12-12T10:18:53.094Z,-0.45
2022-12-12T10:22:04.859Z,-0.43
2022-12-12T10:25:46.207Z,-0.41
2022-12-12T10:29:09.342Z,-0.28
2022-12-12T10:32:35.145Z,-0.42
2022-12-12T10:36:05.665Z,-0.38
2022-12-12T10:39:36.256Z,-0.37
2022-12-12T10:43:29.242Z,-0.39
2022-12-12T10:47:03.502Z,-0.19
2022-12-12T10:50:13.286Z,-0.13
2022-12-12T10:53:20.535Z,-0.15
2022-12-12T10:56:29.369Z,-0.29
2022-12-12T11:10:00.396Z,0.45
2022-12-12T11:15:34.044Z,0.47
2022-12-12T11:18:41.559Z,0.31
2022-12-12T11:22:19.037Z,0.03
2022-12-12T11:25:29.990Z,-0.15
2022-12-12T11:28:53.001Z,-0.17
2022-12-12T11:32:32.978Z,-0.51
2022-12-12T11:35:47.535Z,-0.30
2022-12-12T11:38:58.318Z,-0.25
2022-12-12T11:42:07.408Z,-0.24
2022-12-12T11:45:09.935Z,-0.23
2022-12-12T11:48:42.022Z,-0.36
2022-12-12T11:51:49.454Z,-0.50
2022-12-12T11:54:53.744Z,-0.59
2022-12-12T11:58:27.927Z,-0.67
2022-12-12T12:02:07.180Z,-0.44
2022-12-12T12:10:46.680Z,-0.72
2022-12-12T12:28:10.280Z,-0.21
2022-12-12T12:35:08.484Z,-0.05
2022-12-12T12:38:48.606Z,0.14
2022-12-12T12:42:07.617Z,0.11
2022-12-12T12:45:47.401Z,-0.13
2022-12-12T12:49:03.816Z,-0.07
2022-12-12T12:56:47.370Z,-0.48
2022-12-12T13:00:01.411Z,-0.54
2022-12-12T13:03:24.608Z,-0.52
2022-12-12T13:07:06.052Z,-0.47
2022-12-12T13:10:29.020Z,-0.78
2022-12-12T13:13:34.613Z,-0.57
2022-12-12T13:16:48.871Z,-0.56
2022-12-12T13:19:57.864Z,-0.55
2022-12-12T13:23:28.493Z,-0.41
2022-12-12T13:26:42.939Z,-0.54
2022-12-12T13:29:56.801Z,-0.73
2022-12-12T13:33:49.257Z,-0.38
2022-12-12T13:36:53.752Z,-0.38
2022-12-12T13:40:04.069Z,-0.54
2022-12-12T13:43:30.212Z,-0.64
2022-12-12T13:46:40.332Z,-0.74
2022-12-12T13:50:00.811Z,-0.66
2022-12-12T13:53:24.845Z,-0.72
2022-12-12T13:56:41.889Z,-0.86
2022-12-12T13:59:54.850Z,-0.87
2022-12-12T14:03:02.843Z,-0.76
2022-12-12T14:06:11.166Z,-0.87
2022-12-12T14:09:48.695Z,-0.96
2022-12-12T14:12:53.821Z,-0.83
2022-12-12T14:16:03.283Z,-0.82
2022-12-12T14:19:17.462Z,-0.82
2022-12-12T14:22:29.548Z,-0.77
2022-12-12T14:25:40.714Z,-0.75
2022-12-12T14:28:42.830Z,-0.82
2022-12-12T14:32:13.030Z,-0.88
2022-12-12T14:35:15.516Z,-0.90
2022-12-12T14:39:08.277Z,-0.88
2022-12-12T14:42:26.545Z,-0.83
2022-12-12T14:45:38.033Z,-0.89
2022-12-12T14:48:46.874Z,-0.96
2022-12-12T14:51:54.635Z,-0.95
2022-12-12T14:54:58.628Z,-0.95
2022-12-12T14:58:00.953Z,-0.86
2022-12-12T15:01:05.930Z,-0.86
2022-12-12T15:04:17.874Z,-0.75
2022-12-12T15:07:26.578Z,-0.95
2022-12-12T15:10:38.073Z,-0.77
2022-12-12T15:13:51.949Z,-0.80
2022-12-12T15:17:17.706Z,-0.85
2022-12-12T15:20:25.777Z,-0.85
2022-12-12T15:23:27.727Z,-0.82
2022-12-12T15:26:32.453Z,-0.81
2022-12-12T15:29:37.329Z,-0.90
2022-12-12T15:32:39.599Z,-0.88
2022-12-12T15:35:49.036Z,-0.78
2022-12-12T15:39:23.654Z,-0.81
2022-12-12T15:42:27.444Z,-1.02
2022-12-12T15:45:36.754Z,-1.02
2022-12-12T15:48:38.820Z,-0.91
2022-12-12T15:51:41.619Z,-0.92
2022-12-12T15:54:50.609Z,-0.93
2022-12-12T15:57:53.340Z,-0.88
2022-12-12T16:01:26.652Z,-0.94
2022-12-12T16:04:29.332Z,-0.85
2022-12-12T16:07:36.638Z,-0.84
2022-12-12T16:10:52.537Z,-0.94
2022-12-12T16:13:54.450Z,-0.89
2022-12-12T16:17:10.734Z,-0.91
2022-12-12T16:20:14.709Z,-0.84
2022-12-12T16:23:32.259Z,-0.93
2022-12-12T16:26:34.406Z,-0.96
2022-12-12T16:29:37.766Z,-0.93
2022-12-12T16:32:40.875Z,-0.95
2022-12-12T16:35:43.032Z,-0.91
2022-12-12T16:38:45.250Z,-0.87
2022-12-12T16:41:47.693Z,-0.86
2022-12-12T16:44:50.155Z,-0.77
2022-12-12T16:47:52.811Z,-0.80
2022-12-12T16:50:58.577Z,-0.72
2022-12-12T16:54:01.139Z,-0.72
2022-12-12T16:57:03.088Z,-0.76
2022-12-12T17:00:06.138Z,-0.81
2022-12-12T17:03:09.131Z,-0.83
2022-12-12T17:06:11.311Z,-0.72
2022-12-12T17:09:13.907Z,-0.62
2022-12-12T17:12:15.978Z,-0.66
2022-12-12T17:15:22.898Z,-0.56
2022-12-12T17:18:27.306Z,-0.53
2022-12-12T17:21:29.704Z,-0.43
2022-12-12T17:24:33.407Z,-0.57
2022-12-12T17:27:54.384Z,-0.53
2022-12-12T17:31:02.227Z,-0.45
2022-12-12T17:34:07.191Z,-0.44
2022-12-12T17:37:10.965Z,-0.29
2022-12-12T17:40:14.474Z,-0.48
2022-12-12T17:43:17.432Z,-0.53
2022-12-12T17:46:19.564Z,-0.34
2022-12-12T17:49:22.313Z,-0.48
2022-12-12T17:52:24.430Z,-0.65
2022-12-12T17:55:53.571Z,-0.78
2022-12-12T17:58:51.700Z,-0.90
2022-12-12T18:01:55.519Z,-0.90
2022-12-12T18:04:57.914Z,-0.87
2022-12-12T18:08:00.886Z,-0.84
2022-12-12T18:11:07.574Z,-0.88
2022-12-12T18:14:15.999Z,-0.89
2022-12-12T18:17:18.198Z,-0.91
2022-12-12T18:20:20.352Z,-0.85
2022-12-12T18:23:23.120Z,-0.91
2022-12-12T18:26:25.455Z,-0.97
2022-12-12T18:29:27.855Z,-1.02
2022-12-12T18:32:32.993Z,-1.01
2022-12-12T18:35:35.112Z,-0.92
2022-12-12T18:38:37.172Z,-0.94
2022-12-12T18:41:39.569Z,-1.13
2022-12-12T18:44:42.982Z,-1.13
2022-12-12T18:47:47.852Z,-1.14
2022-12-12T18:50:50.842Z,-1.09
2022-12-12T18:53:54.902Z,-1.05
2022-12-12T18:56:57.203Z,-1.02
2022-12-12T18:59:59.925Z,-0.98
2022-12-12T19:03:02.327Z,-1.02
2022-12-12T19:06:07.756Z,-1.06
2022-12-12T19:09:15.597Z,-0.94
2022-12-12T19:12:18.301Z,-0.99
2022-12-12T19:15:21.137Z,-1.09
2022-12-12T19:18:23.430Z,-1.06
2022-12-12T19:21:27.834Z,-1.08
2022-12-12T19:24:30.266Z,-1.06
2022-12-12T19:27:32.758Z,-0.98
2022-12-12T19:30:42.397Z,-0.98
2022-12-12T19:33:45.795Z,-0.90
2022-12-12T19:36:48.003Z,-0.88
2022-12-12T19:39:52.523Z,-0.87
2022-12-12T19:42:54.882Z,-0.74
2022-12-12T19:46:07.165Z,-0.71
2022-12-12T19:49:12.496Z,-0.58
2022-12-12T19:52:14.987Z,-0.79
2022-12-12T19:55:17.216Z,-0.68
2022-12-12T19:58:21.107Z,-0.68
2022-12-12T20:01:28.954Z,-0.69
2022-12-12T20:04:31.791Z,-0.68
2022-12-12T20:07:34.922Z,-0.75
2022-12-12T20:10:38.841Z,-0.80
2022-12-12T20:13:41.375Z,-0.73
2022-12-12T20:16:44.244Z,-0.76
2022-12-12T20:19:48.876Z,-0.65
2022-12-12T20:22:51.439Z,-0.58
2022-12-12T20:25:53.861Z,-0.55
2022-12-12T20:28:58.102Z,-0.70
2022-12-12T20:32:02.103Z,-0.69
2022-12-12T20:35:04.763Z,-0.61
2022-12-12T20:38:07.082Z,-0.54
2022-12-12T20:41:18.072Z,-0.59
2022-12-12T20:44:20.807Z,-0.44
2022-12-12T20:47:23.589Z,-0.61
2022-12-12T20:50:30.960Z,-0.60
2022-12-12T20:53:36.817Z,-0.62
2022-12-12T20:56:44.488Z,-0.67
2022-12-12T20:59:49.748Z,-0.60
2022-12-12T21:02:51.912Z,-0.62
2022-12-12T21:05:54.312Z,-0.59
2022-12-12T21:09:02.086Z,-0.72
2022-12-12T21:12:04.315Z,-0.71
2022-12-12T21:15:07.122Z,-0.69
2022-12-12T21:18:09.701Z,-0.74
2022-12-12T21:21:12.566Z,-0.73
2022-12-12T21:24:17.002Z,-0.64
2022-12-12T21:27:21.708Z,-0.66
2022-12-12T21:30:24.593Z,-0.62
2022-12-12T21:33:28.553Z,-0.60
2022-12-12T21:36:31.012Z,-0.60
2022-12-12T21:39:34.489Z,-0.69
2022-12-12T21:42:36.778Z,-0.67
2022-12-12T21:45:44.936Z,-0.74
2022-12-12T21:49:11.480Z,-0.74
2022-12-12T21:52:15.069Z,-0.77
2022-12-12T21:55:20.003Z,-0.82
2022-12-12T21:58:22.826Z,-0.81
2022-12-12T22:01:25.774Z,-0.81
2022-12-12T22:04:28.276Z,-0.85
2022-12-12T22:07:30.750Z,-0.99
2022-12-12T22:10:36.677Z,-0.98
2022-12-12T22:13:42.319Z,-0.92
2022-12-12T22:16:44.795Z,-0.96
2022-12-12T22:19:47.317Z,-1.03
2022-12-12T22:22:49.822Z,-1.04
2022-12-12T22:25:51.968Z,-1.09
2022-12-12T22:28:59.452Z,-1.09
2022-12-12T22:32:04.950Z,-1.11
2022-12-12T22:35:07.674Z,-1.14
2022-12-12T22:38:10.252Z,-1.12
2022-12-12T22:41:12.408Z,-1.09
2022-12-12T22:44:17.481Z,-1.28
2022-12-12T22:47:19.925Z,-1.16
2022-12-12T22:50:22.585Z,-1.20
2022-12-12T22:53:24.966Z,-1.15
2022-12-12T22:56:28.910Z,-1.15
2022-12-12T22:59:31.198Z,-1.17
2022-12-12T23:02:34.064Z,-1.14
2022-12-12T23:05:36.027Z,-1.25
2022-12-12T23:08:38.063Z,-1.26
2022-12-12T23:11:43.195Z,-1.20
2022-12-12T23:14:45.272Z,-1.27
2022-12-12T23:17:47.242Z,-1.25
2022-12-12T23:20:49.226Z,-1.34
2022-12-12T23:23:54.257Z,-1.27
2022-12-12T23:26:57.010Z,-1.30
2022-12-12T23:30:00.689Z,-1.33
2022-12-12T23:33:03.587Z,-1.35
2022-12-12T23:36:14.130Z,-1.32
2022-12-12T23:39:16.464Z,-1.34
2022-12-12T23:42:18.591Z,-1.27
2022-12-12T23:45:23.456Z,-1.25
2022-12-12T23:48:25.667Z,-1.35
2022-12-12T23:51:34.419Z,-1.34
2022-12-12T23:54:36.839Z,-1.36
2022-12-12T23:57:38.874Z,-1.35
